F/v_l'omerta — FHXG — position and weather

sailwx.info

Track history (hours):
 
Tides and Currents Weather Stations Pressure Air Temp Water Temp Dewpoint Dewpoint Depression Visibility Wind Speed Wind Dir Waves Ship Positions

F/v_l'omerta

Last reported at 2015-May-27 15:28 UTC. Time now 2015-May-27 17:58 UTC.
Position N 46°23' W 002°58'.

Length 18 m.

Type: Fishing. MMSI: 227903000.

Date/timePositionNaut miles runAvg speedWind from/ knotsBaromVisibWave heightAir tempDewpointWater temp
2015-May-27 15:28N 46°23' W 002°58'26 2.0
2015-May-27 02:23N 46°24' W 002°20'8 9.7
2015-May-27 01:33N 46°26' W 002°09'10 9.6
2015-May-27 00:34N 46°27' W 001°55'6 6.0
2015-May-26 23:33N 46°30' W 001°48'0 0.0
2015-May-26 22:33N 46°30' W 001°48'0 0.0
2015-May-26 21:34N 46°30' W 001°48'0 0.0
2015-May-26 20:33N 46°30' W 001°48'0 0.0
2015-May-26 19:34N 46°30' W 001°48'0 0.0
2015-May-26 18:33N 46°30' W 001°48'0 0.0
2015-May-26 17:33N 46°30' W 001°48'0 0.0
2015-May-26 16:34N 46°30' W 001°48'0 0.0
2015-May-26 15:34N 46°30' W 001°48'0 0.0
2015-May-26 14:34N 46°30' W 001°48'0 0.0
2015-May-26 13:33N 46°30' W 001°48'0 0.1
2015-May-26 12:33N 46°30' W 001°48'8 8.3
2015-May-26 11:34N 46°26' W 001°58'10 9.5
2015-May-26 10:34N 46°23' W 002°11'5 0.6
2015-May-26 02:33N 46°25' W 002°05'1010.0
2015-May-26 01:33N 46°27' W 001°51'4 3.9
2015-May-26 00:34N 46°30' W 001°47'0 0.0
2015-May-25 23:33N 46°30' W 001°47'8 7.8
2015-May-25 22:33N 46°24' W 001°54'28 0.7
2015-May-24 04:33N 46°10' W 002°29'9 4.2
2015-May-24 02:31N 46°14' W 002°19'7 7.5
2015-May-24 01:33N 46°18' W 002°10'8 7.8
2015-May-24 00:34N 46°22' W 002°01'8 7.6
2015-May-23 23:33N 46°27' W 001°51'4 4.2
2015-May-23 22:33N 46°30' W 001°48'0 0.0
2015-May-23 21:33N 46°30' W 001°48'0 0.0
2015-May-22 16:24N 46°30' W 001°48'0 0.0
2015-May-22 11:22N 46°30' W 001°48'0 0.0
2015-May-22 10:33N 46°30' W 001°48'0 0.0
2015-May-22 09:33N 46°30' W 001°48'0 0.0
2015-May-22 08:33N 46°30' W 001°48'0 0.0
2015-May-22 07:33N 46°30' W 001°48'0 0.0
2015-May-22 06:34N 46°30' W 001°48'0 0.0
2015-May-21 15:08N 46°30' W 001°48'0 0.0
2015-May-21 14:33N 46°30' W 001°48'0 0.0
2015-May-21 10:33N 46°30' W 001°48'0 0.0
2015-May-21 09:33N 46°30' W 001°48'0 0.0
2015-May-21 08:33N 46°30' W 001°48'0 0.0
2015-May-21 07:33N 46°30' W 001°48'0 0.0
2015-May-21 06:33N 46°30' W 001°48'0 0.0
2015-May-20 19:33N 46°30' W 001°48'7 6.9
2015-May-20 18:33N 46°25' W 001°55'9 9.1
2015-May-20 17:33N 46°21' W 002°07'10 0.3
2015-May-19 02:29N 46°14' W 001°56'9 9.2
2015-May-19 01:33N 46°22' W 001°51'8 8.3
2015-May-19 00:33N 46°30' W 001°48'0 0.2
2015-May-18 23:33N 46°30' W 001°47'0 0.0
2015-May-18 22:33N 46°30' W 001°47'0 0.0
2015-May-18 21:33N 46°30' W 001°47'0 0.0
2015-May-18 20:34N 46°30' W 001°47'0 0.0
2015-May-18 19:33N 46°30' W 001°47'0 0.0
2015-May-18 18:33N 46°30' W 001°47'0 0.0
2015-May-18 17:34N 46°30' W 001°47'0 0.0
2015-May-18 16:34N 46°30' W 001°47'0 0.0
2015-May-18 15:33N 46°30' W 001°47'0 0.0
2015-May-18 14:33N 46°30' W 001°47'0 0.0
2015-May-18 13:34N 46°30' W 001°47'0 0.0
2015-May-18 12:34N 46°30' W 001°47'0 0.0
2015-May-18 11:33N 46°30' W 001°47'0 0.0
2015-May-18 10:33N 46°30' W 001°47'0 0.0
2015-May-18 09:33N 46°30' W 001°47'0 0.0
2015-May-18 08:33N 46°30' W 001°47'0 0.0
2015-May-18 07:33N 46°30' W 001°47'0 0.1
2015-May-18 06:33N 46°30' W 001°47'  
Track history (hours):
 
Tides and Currents Weather Stations Pressure Air Temp Water Temp Dewpoint Dewpoint Depression Visibility Wind Speed Wind Dir Waves Ship Positions

F/v_l'omerta

Last reported at 2015-May-27 15:28 UTC. Time now 2015-May-27 17:58 UTC.
Position N 46°23' W 002°58'.

Length 18 m.

Type: Fishing. MMSI: 227903000.

Date/timePositionNaut miles runAvg speedWind from/ knotsBaromVisibWave heightAir tempDewpointWater temp
2015-May-27 15:28N 46°23' W 002°58'26 2.0
2015-May-27 02:23N 46°24' W 002°20'8 9.7
2015-May-27 01:33N 46°26' W 002°09'10 9.6
2015-May-27 00:34N 46°27' W 001°55'6 6.0
2015-May-26 23:33N 46°30' W 001°48'0 0.0
2015-May-26 22:33N 46°30' W 001°48'0 0.0
2015-May-26 21:34N 46°30' W 001°48'0 0.0
2015-May-26 20:33N 46°30' W 001°48'0 0.0
2015-May-26 19:34N 46°30' W 001°48'0 0.0
2015-May-26 18:33N 46°30' W 001°48'0 0.0
2015-May-26 17:33N 46°30' W 001°48'0 0.0
2015-May-26 16:34N 46°30' W 001°48'0 0.0
2015-May-26 15:34N 46°30' W 001°48'0 0.0
2015-May-26 14:34N 46°30' W 001°48'0 0.0
2015-May-26 13:33N 46°30' W 001°48'0 0.1
2015-May-26 12:33N 46°30' W 001°48'8 8.3
2015-May-26 11:34N 46°26' W 001°58'10 9.5
2015-May-26 10:34N 46°23' W 002°11'5 0.6
2015-May-26 02:33N 46°25' W 002°05'1010.0
2015-May-26 01:33N 46°27' W 001°51'4 3.9
2015-May-26 00:34N 46°30' W 001°47'0 0.0
2015-May-25 23:33N 46°30' W 001°47'8 7.8
2015-May-25 22:33N 46°24' W 001°54'28 0.7
2015-May-24 04:33N 46°10' W 002°29'9 4.2
2015-May-24 02:31N 46°14' W 002°19'7 7.5
2015-May-24 01:33N 46°18' W 002°10'8 7.8
2015-May-24 00:34N 46°22' W 002°01'8 7.6
2015-May-23 23:33N 46°27' W 001°51'4 4.2
2015-May-23 22:33N 46°30' W 001°48'0 0.0
2015-May-23 21:33N 46°30' W 001°48'0 0.0
2015-May-22 16:24N 46°30' W 001°48'0 0.0
2015-May-22 11:22N 46°30' W 001°48'0 0.0
2015-May-22 10:33N 46°30' W 001°48'0 0.0
2015-May-22 09:33N 46°30' W 001°48'0 0.0
2015-May-22 08:33N 46°30' W 001°48'0 0.0
2015-May-22 07:33N 46°30' W 001°48'0 0.0
2015-May-22 06:34N 46°30' W 001°48'0 0.0
2015-May-21 15:08N 46°30' W 001°48'0 0.0
2015-May-21 14:33N 46°30' W 001°48'0 0.0
2015-May-21 10:33N 46°30' W 001°48'0 0.0
2015-May-21 09:33N 46°30' W 001°48'0 0.0
2015-May-21 08:33N 46°30' W 001°48'0 0.0
2015-May-21 07:33N 46°30' W 001°48'0 0.0
2015-May-21 06:33N 46°30' W 001°48'0 0.0
2015-May-20 19:33N 46°30' W 001°48'7 6.9
2015-May-20 18:33N 46°25' W 001°55'9 9.1
2015-May-20 17:33N 46°21' W 002°07'10 0.3
2015-May-19 02:29N 46°14' W 001°56'9 9.2
2015-May-19 01:33N 46°22' W 001°51'8 8.3
2015-May-19 00:33N 46°30' W 001°48'0 0.2
2015-May-18 23:33N 46°30' W 001°47'0 0.0
2015-May-18 22:33N 46°30' W 001°47'0 0.0
2015-May-18 21:33N 46°30' W 001°47'0 0.0
2015-May-18 20:34N 46°30' W 001°47'0 0.0
2015-May-18 19:33N 46°30' W 001°47'0 0.0
2015-May-18 18:33N 46°30' W 001°47'0 0.0
2015-May-18 17:34N 46°30' W 001°47'0 0.0
2015-May-18 16:34N 46°30' W 001°47'0 0.0
2015-May-18 15:33N 46°30' W 001°47'0 0.0
2015-May-18 14:33N 46°30' W 001°47'0 0.0
2015-May-18 13:34N 46°30' W 001°47'0 0.0
2015-May-18 12:34N 46°30' W 001°47'0 0.0
2015-May-18 11:33N 46°30' W 001°47'0 0.0
2015-May-18 10:33N 46°30' W 001°47'0 0.0
2015-May-18 09:33N 46°30' W 001°47'0 0.0
2015-May-18 08:33N 46°30' W 001°47'0 0.0
2015-May-18 07:33N 46°30' W 001°47'0 0.1
2015-May-18 06:33N 46°30' W 001°47'  

Dump ship's entire track history